Cleveland, OH (44122)

10:44 PM EDT on August 24, 2016 (GMT -0400)
Cuyahoga County Skywarn | | Change Station

Elev 1007 ft 41.47 °N, 81.56 °W | Updated 21 days ago

Thunderstorm
Thunderstorm
74 °F
Feels Like 74 °F
N
11
Wind Variable Wind from SSW
Gusts 21 mph

Today
High -- | Low -- °F
--% Chance of Precip.
Yesterday
High -- | Low -- °F
Precip. -- in
Pressure 30.04 in
Visibility 15.0 miles
Clouds Few 6000 ft
Mostly Cloudy 15000 ft
Dew Point 68 °F
Humidity 83%
Rainfall in
Snow Depth Not available.
6:44 AM 8:11 PM
Waning Gibbous, 50% visible
METAR KCGF 250145Z 20014KT 15SM FEW060 BKN150 28/21 A3004
Pressure 30.04 in
Visibility 15.0 miles
Clouds Few 6000 ft
Mostly Cloudy 15000 ft
Dew Point 68 °F
Humidity 83%
Rainfall in
Snow Depth Not available.
6:44 AM 8:11 PM
Waning Gibbous, 50% visible
METAR KCGF 250145Z 20014KT 15SM FEW060 BKN150 28/21 A3004

10-Day Weather Forecast

Almanac

Astronomy

Aug. 24, 2016 Rise Set
Actual Time
Civil Twilight
Nautical Twilight
Astronomical Twilight
Moon
Length of Visible Light
Length of Day
Tomorrow will be .
, % of the Moon is Illuminated

Today's Extremes

State Highs State Lows

Community

WunderPhotos

Upload Photos

1,934,779 photos uploaded!

WunderBlog® & News

Nearby

Air Quality

  Air Quality AQ Index Pollutant
Not available.

Snow Depth

Station Depth Elevation

Earthquake Activity

City Distance Mag. Time & Date
Minimum magnitude displayed is 2.5.

Coastal Water Temperatures

Place Temperature

Stations

Nearby Weather Stations

Station Location Temp. Windchill Dew Point Humidity Wind Precip. Elev Updated Type
                   

Watches & Warnings

There are currently no watches in effect.